< Cyclone 200401 2004 Season Cyclone 200403 >
Cyclone 200402 (DEBBIE)
General InformationTrack Information on Google MapsDetailed Wind InformationList of All Images || ResourceGoogle EarthGE AnimationAtom FeedGeoJSON
Detalied Best Track (Time Zone = UTC)
Year Month Day Hour Lat. Long. Pressure (hPa) Wind (kt) Class Image Chart
2003 12 16 00 -9.9 140.4 1005 15 2 Image --
2003 12 16 03 -9.9 139.8 1004 15 2 Image --
2003 12 16 06 -9.9 139.4 1003 15 2 Image --
2003 12 16 09 -9.9 139.0 1003 15 2 Image --
2003 12 16 12 -9.8 138.6 1004 15 2 Image --
2003 12 16 15 -9.7 138.2 1004 15 2 Image --
2003 12 16 18 -9.6 138.0 1003 20 2 Image --
2003 12 16 21 -9.5 137.8 1003 20 2 Image --
2003 12 17 00 -9.3 137.4 1002 25 2 Image --
2003 12 17 03 -9.2 137.1 1001 25 2 Image --
2003 12 17 06 -9.2 136.6 1000 25 2 Image --
2003 12 17 09 -9.2 136.2 998 30 2 Image --
2003 12 17 12 -9.2 136.0 998 30 2 Image --
2003 12 17 15 -9.3 135.7 998 30 2 Image --
2003 12 17 18 -9.4 135.6 998 30 2 Image --
2003 12 17 21 -9.5 135.6 998 30 2 Image --
2003 12 18 00 -9.5 135.6 995 30 2 Image --
2003 12 18 03 -9.6 135.6 995 30 2 Image --
2003 12 18 06 -9.6 135.6 995 30 2 Image --
2003 12 18 09 -9.7 135.5 995 30 2 Image --
2003 12 18 12 -9.7 135.5 995 30 2 Image --
2003 12 18 15 -9.7 135.5 992 35 3 Image --
2003 12 18 18 -9.7 135.4 990 40 3 Image --
2003 12 18 21 -9.7 135.3 988 50 4 Image --
2003 12 19 00 -9.8 135.1 988 50 4 Image --
2003 12 19 03 -9.9 134.9 985 55 4 Image --
2003 12 19 06 -9.9 134.8 982 55 4 Image --
2003 12 19 09 -9.9 134.7 980 55 4 Image --
2003 12 19 12 -10.1 134.5 975 60 4 Image --
2003 12 19 15 -10.3 134.4 970 65 5 Image --
2003 12 19 18 -10.5 134.3 970 65 5 Image --
2003 12 19 21 -10.8 134.1 970 65 5 Image --
2003 12 20 00 -10.9 134.0 970 65 5 Image --
2003 12 20 03 -11.1 133.9 970 65 5 Image --
2003 12 20 06 -11.3 133.8 970 65 5 Image --
2003 12 20 09 -11.5 133.7 975 60 4 Image --
2003 12 20 12 -11.7 133.6 975 60 4 Image --
2003 12 20 15 -12.1 133.4 980 50 4 Image --
2003 12 20 18 -12.4 133.4 985 40 3 Image --
2003 12 20 21 -12.7 133.5 990 35 3 Image --
2003 12 21 00 -13.0 133.8 993 30 2 Image --
2003 12 21 03 -13.3 133.9 995 20 2 Image --
2003 12 21 06 -13.5 133.6 995 20 2 Image --
2003 12 21 09 -13.9 133.3 993 20 2 Image --
2003 12 21 12 -13.9 133.0 995 20 2 Image --
2003 12 21 15 -13.9 132.8 995 20 2 Image --
2003 12 21 18 -13.9 132.8 992 20 2 Image --
2003 12 21 21 -13.9 132.8 993 15 2 Image --
2003 12 22 00 -14.0 132.6 994 15 2 Image --
2003 12 22 03 -14.1 132.5 993 15 2 Image --
2003 12 22 06 -14.2 132.4 992 15 2 Image --
2003 12 22 09 -14.4 132.3 991 15 2 Image --
2003 12 22 12 -14.7 132.0 993 15 2 Image --
2003 12 22 15 -14.9 131.7 993 15 2 Image --
2003 12 22 18 -15.1 131.3 992 15 2 Image --
2003 12 22 21 -15.3 131.0 993 15 2 Image --
2003 12 23 00 -15.4 130.5 993 15 2 Image --
< Cyclone 200401 2004 Season Cyclone 200403 >

Help